Time;durP1;ratioP1;P1;durP2;ratioP2;P2;SDS_P1;SDS_P2;PMS_P1;PMS_P2;Temp;Humidity;BMP_temperature;BMP_pressure;BME280_temperature;BME280_humidity;BME280_pressure;Samples;Min_cycle;Max_cycle;Signal;HPM_P1;HPM_P2
2023/09/08 00:01:53;;;;;;;7.55;6.68;;;;;;;;;;6227436;22;20095;-95
2023/09/08 00:04:21;;;;;;;7.60;6.90;;;;;;;;;;6227773;22;20015;-96
2023/09/08 00:06:47;;;;;;;8.80;7.28;;;;;;;;;;6230058;22;20019;-96
2023/09/08 00:09:13;;;;;;;7.82;7.13;;;;;;;;;;6240025;22;20007;-95
2023/09/08 00:11:39;;;;;;;8.23;7.03;;;;;;;;;;6250766;22;20042;-95
2023/09/08 00:14:05;;;;;;;8.13;7.35;;;18.60;99.90;;;;;;6250216;22;20000;-95
2023/09/08 00:16:31;;;;;;;8.80;7.45;;;18.50;99.90;;;;;;6246972;22;20084;-95
2023/09/08 00:18:58;;;;;;;8.50;7.68;;;18.80;99.90;;;;;;6226290;22;20098;-95
2023/09/08 00:21:26;;;;;;;7.70;6.82;;;18.40;99.90;;;;;;6225850;22;20018;-96
2023/09/08 00:23:53;;;;;;;7.85;7.05;;;18.60;99.90;;;;;;6229946;22;20061;-96
2023/09/08 00:26:19;;;;;;;10.50;7.72;;;18.20;99.90;;;;;;6235197;22;20452;-96
2023/09/08 00:28:45;;;;;;;9.30;8.18;;;18.40;99.90;;;;;;6238271;22;20003;-95
2023/09/08 00:31:11;;;;;;;9.20;8.32;;;18.30;99.90;;;;;;6230196;22;20123;-95
2023/09/08 00:33:37;;;;;;;8.70;7.80;;;18.30;99.90;;;;;;6247547;22;20011;-95
2023/09/08 00:36:03;;;;;;;8.23;7.53;;;18.30;99.90;;;;;;6249262;22;20061;-95
2023/09/08 00:38:29;;;;;;;8.70;7.72;;;18.10;99.90;;;;;;6249604;22;20011;-95
2023/09/08 00:40:55;;;;;;;9.30;7.60;;;18.20;99.90;;;;;;6237821;22;20043;-96
2023/09/08 00:43:22;;;;;;;11.82;8.52;;;;;;;;;;6252702;22;20061;-96
2023/09/08 00:45:48;;;;;;;9.15;8.25;;;;;;;;;;6252853;22;20026;-95
2023/09/08 00:48:14;;;;;;;9.05;8.15;;;18.00;99.90;;;;;;6226055;22;20019;-95
2023/09/08 00:50:40;;;;;;;9.65;8.52;;;17.80;99.90;;;;;;6226864;22;20007;-96
2023/09/08 00:53:07;;;;;;;10.20;8.02;;;17.90;99.90;;;;;;6228030;22;20011;-96
2023/09/08 00:55:33;;;;;;;9.00;8.13;;;17.60;99.90;;;;;;6227866;22;20023;-96
2023/09/08 00:58:00;;;;;;;15.18;8.85;;;;;;;;;;6232227;22;20016;-96
2023/09/08 01:00:26;;;;;;;9.05;8.15;;;;;;;;;;6259813;22;20050;-95
2023/09/08 01:02:52;;;;;;;9.48;8.68;;;17.70;99.90;;;;;;6238096;22;20015;-96
2023/09/08 01:05:22;;;;;;;9.48;8.43;;;;;;;;;;6237000;22;20016;-96
2023/09/08 01:07:48;;;;;;;10.43;9.32;;;;;;;;;;6258696;22;20382;-96
2023/09/08 01:10:15;;;;;;;9.90;9.00;;;;;;;;;;6229644;22;20043;-96
2023/09/08 01:12:44;;;;;;;9.60;8.70;;;;;;;;;;6229471;22;20020;-95
2023/09/08 01:15:10;;;;;;;9.95;8.95;;;;;;;;;;6230273;22;20015;-95
2023/09/08 01:17:37;;;;;;;10.23;9.38;;;;;;;;;;6230403;22;20015;-95
2023/09/08 01:20:07;;;;;;;10.63;9.73;;;;;;;;;;6266326;22;20012;-96
2023/09/08 01:23:01;;;;;;;12.52;10.02;;;;;;;;;;6240575;22;20049;-95
2023/09/08 01:25:27;;;;;;;10.88;9.75;;;;;;;;;;6248578;22;20055;-96
2023/09/08 01:27:54;;;;;;;10.55;9.60;;;;;;;;;;6244024;22;20019;-96
2023/09/08 01:30:22;;;;;;;10.75;9.75;;;;;;;;;;6265303;22;20012;-96
2023/09/08 01:32:49;;;;;;;10.45;9.00;;;;;;;;;;6245366;22;20026;-95
2023/09/08 01:35:15;;;;;;;12.27;9.98;;;;;;;;;;6270465;22;20020;-95
2023/09/08 01:37:42;;;;;;;11.18;10.18;;;;;;;;;;6230223;22;20057;-96
2023/09/08 01:40:11;;;;;;;11.57;10.23;;;;;;;;;;6229072;22;20015;-96
2023/09/08 01:42:38;;;;;;;12.57;11.27;;;;;;;;;;6227213;22;20065;-96
2023/09/08 01:45:04;;;;;;;11.20;10.10;;;;;;;;;;6228465;22;20054;-96
2023/09/08 01:47:31;;;;;;;11.45;10.15;;;;;;;;;;6252466;22;20094;-96
2023/09/08 01:49:57;;;;;;;11.60;10.40;;;;;;;;;;6254575;22;20016;-96
2023/09/08 01:52:23;;;;;;;11.77;10.68;;;;;;;;;;6227698;22;20022;-95
2023/09/08 01:54:49;;;;;;;10.27;9.38;;;;;;;;;;6252131;22;20018;-96
2023/09/08 01:57:15;;;;;;;12.15;10.65;;;;;;;;;;6227081;22;20023;-96
2023/09/08 01:59:42;;;;;;;11.98;10.77;;;;;;;;;;6230187;22;20018;-96
2023/09/08 02:02:08;;;;;;;12.50;10.90;;;;;;;;;;6253812;22;20016;-96
2023/09/08 02:04:34;;;;;;;12.02;10.68;;;;;;;;;;6232439;22;20076;-96
2023/09/08 02:07:01;;;;;;;12.80;10.05;;;;;;;;;;6257389;22;20023;-96
2023/09/08 02:09:34;;;;;;;12.05;10.82;;;;;;;;;;6226505;22;20095;-96
2023/09/08 02:12:01;;;;;;;12.68;10.93;;;;;;;;;;6254502;22;20023;-96
2023/09/08 02:14:29;;;;;;;11.98;10.77;;;;;;;;;;6243380;22;20139;-96
2023/09/08 02:16:56;;;;;;;13.85;10.30;;;;;;;;;;6227895;22;20215;-95
2023/09/08 02:19:22;;;;;;;11.50;10.23;;;;;;;;;;6242892;22;20019;-96
2023/09/08 02:21:49;;;;;;;13.15;11.20;;;;;;;;;;6254901;22;20015;-96
2023/09/08 02:24:15;;;;;;;12.27;11.07;;;;;;;;;;6227494;22;20019;-96
2023/09/08 02:26:41;;;;;;;12.68;10.63;;;;;;;;;;6236589;22;20012;-96
2023/09/08 02:29:07;;;;;;;11.68;10.57;;;;;;;;;;6238002;22;20012;-95
2023/09/08 02:31:34;;;;;;;12.07;11.07;;;;;;;;;;6252147;22;20031;-96
2023/09/08 02:34:00;;;;;;;12.07;11.07;;;;;;;;;;6278096;22;20079;-96
2023/09/08 02:36:27;;;;;;;11.75;10.52;;;;;;;;;;6272467;22;20023;-96
2023/09/08 02:38:53;;;;;;;13.00;11.70;;;;;;;;;;6238353;22;20432;-96
2023/09/08 02:41:20;;;;;;;11.35;10.38;;;;;;;;;;6262688;22;20016;-96
2023/09/08 02:43:46;;;;;;;11.95;10.95;;;16.70;99.90;;;;;;6255962;22;20042;-96
2023/09/08 02:46:11;;;;;;;15.13;11.90;;;16.70;99.90;;;;;;6231103;22;20019;-96
2023/09/08 02:48:38;;;;;;;12.38;11.10;;;16.70;99.90;;;;;;6229982;22;20012;-96
2023/09/08 02:51:04;;;;;;;12.55;11.35;;;16.70;99.90;;;;;;6227429;22;20012;-95
2023/09/08 02:53:30;;;;;;;12.88;11.40;;;16.70;99.90;;;;;;6225881;22;20047;-94
2023/09/08 02:55:56;;;;;;;12.68;10.75;;;16.60;99.90;;;;;;6225527;22;20066;-95
2023/09/08 02:58:22;;;;;;;12.95;11.85;;;16.60;99.90;;;;;;6225622;22;20008;-95
2023/09/08 03:00:49;;;;;;;13.13;11.77;;;16.60;99.90;;;;;;6225248;22;20103;-95
2023/09/08 03:03:14;;;;;;;13.25;12.13;;;16.60;99.90;;;;;;6251088;22;20449;-94
2023/09/08 03:05:40;;;;;;;13.25;12.02;;;16.60;99.90;;;;;;6250983;22;20019;-94
2023/09/08 03:08:06;;;;;;;12.20;11.10;;;16.60;99.90;;;;;;6237955;22;20443;-94
2023/09/08 03:10:34;;;;;;;12.75;11.40;;;16.50;99.90;;;;;;6225665;22;20011;-94
2023/09/08 03:13:03;;;;;;;13.13;11.50;;;16.50;99.90;;;;;;6231459;22;20015;-95
2023/09/08 03:15:28;;;;;;;13.05;11.95;;;16.50;99.90;;;;;;6224096;22;20024;-94
2023/09/08 03:17:55;;;;;;;11.85;10.82;;;16.50;99.90;;;;;;6224461;22;20082;-94
2023/09/08 03:20:21;;;;;;;12.40;11.20;;;16.50;99.90;;;;;;6250066;22;20359;-94
2023/09/08 03:22:46;;;;;;;12.85;11.57;;;16.50;99.90;;;;;;6250544;22;20055;-94
2023/09/08 03:25:16;;;;;;;13.05;11.85;;;16.40;99.90;;;;;;6224389;22;20051;-95
2023/09/08 03:27:41;;;;;;;12.50;11.45;;;16.40;99.90;;;;;;6224255;22;20012;-95
2023/09/08 03:30:07;;;;;;;13.77;12.52;;;16.40;99.90;;;;;;6224323;22;20019;-94
2023/09/08 03:32:34;;;;;;;14.00;12.65;;;16.40;99.90;;;;;;6249637;22;20409;-94
2023/09/08 03:34:59;;;;;;;12.77;11.68;;;16.30;99.90;;;;;;6249925;22;20015;-94
2023/09/08 03:37:28;;;;;;;14.25;12.85;;;16.30;99.90;;;;;;6225267;22;20015;-94
2023/09/08 03:39:53;;;;;;;13.93;12.55;;;16.20;99.90;;;;;;6266428;22;20037;-94
2023/09/08 03:42:19;;;;;;;14.45;12.98;;;16.20;99.90;;;;;;6232951;22;20047;-94
2023/09/08 03:44:45;;;;;;;15.27;12.65;;;16.20;99.90;;;;;;6224935;22;20461;-95
2023/09/08 03:47:11;;;;;;;13.73;12.48;;;16.20;99.90;;;;;;6235721;22;20008;-94
2023/09/08 03:49:36;;;;;;;13.45;12.32;;;16.20;99.90;;;;;;6266817;22;20015;-94
2023/09/08 03:52:02;;;;;;;14.55;13.25;;;16.20;99.90;;;;;;6238443;22;20441;-94
2023/09/08 03:54:28;;;;;;;14.60;13.30;;;16.20;99.90;;;;;;6251730;22;20023;-95
2023/09/08 03:56:54;;;;;;;14.88;13.40;;;16.20;99.90;;;;;;6225170;22;20011;-94
2023/09/08 03:59:19;;;;;;;15.68;13.82;;;16.10;99.90;;;;;;6226025;22;20016;-95
2023/09/08 04:01:45;;;;;;;16.02;13.23;;;16.10;99.90;;;;;;6229062;22;20036;-95
2023/09/08 04:04:11;;;;;;;14.77;13.27;;;16.10;99.90;;;;;;6255907;22;20012;-95
2023/09/08 04:06:36;;;;;;;14.95;13.50;;;16.10;99.90;;;;;;6227676;22;20019;-94
2023/09/08 04:09:02;;;;;;;14.73;13.32;;;16.00;99.90;;;;;;6234280;22;20047;-95
2023/09/08 04:11:28;;;;;;;15.13;13.73;;;16.00;99.90;;;;;;6251430;22;20111;-96
2023/09/08 04:13:54;;;;;;;15.80;12.90;;;;;;;;;;6254092;22;20011;-96
2023/09/08 04:16:20;;;;;;;16.20;14.07;;;16.00;99.90;;;;;;6226499;22;20098;-96
2023/09/08 04:18:46;;;;;;;15.13;13.57;;;16.00;99.90;;;;;;6250326;22;20008;-95
2023/09/08 04:21:11;;;;;;;14.75;13.13;;;15.90;99.90;;;;;;6277193;22;20015;-95
2023/09/08 04:23:37;;;;;;;14.32;13.02;;;15.90;99.90;;;;;;6224245;22;20012;-94
2023/09/08 04:26:03;;;;;;;15.70;14.10;;;15.90;99.90;;;;;;6223900;22;20011;-94
2023/09/08 04:28:28;;;;;;;21.75;15.43;;;15.90;99.90;;;;;;6224382;22;20020;-95
2023/09/08 04:30:54;;;;;;;15.48;13.98;;;15.90;99.90;;;;;;6224118;22;20452;-95
2023/09/08 04:33:20;;;;;;;15.60;14.20;;;15.90;99.90;;;;;;6224155;22;20091;-95
2023/09/08 04:35:45;;;;;;;15.48;14.05;;;15.90;99.90;;;;;;6224043;22;20014;-95
2023/09/08 04:38:11;;;;;;;14.82;13.52;;;15.90;99.90;;;;;;6224435;22;20380;-94
2023/09/08 04:40:40;;;;;;;16.58;14.30;;;15.80;99.90;;;;;;6223767;22;20015;-95
2023/09/08 04:43:06;;;;;;;16.13;14.63;;;15.80;99.90;;;;;;6224159;22;20061;-95
2023/09/08 04:45:32;;;;;;;14.85;13.50;;;15.80;99.90;;;;;;6249770;22;20012;-94
2023/09/08 04:47:57;;;;;;;16.17;13.00;;;15.80;99.90;;;;;;6224200;22;20015;-95
2023/09/08 04:50:23;;;;;;;15.80;14.02;;;15.80;99.90;;;;;;6250650;22;20011;-95
2023/09/08 04:52:49;;;;;;;15.40;13.73;;;15.80;99.90;;;;;;6225707;22;20016;-95
2023/09/08 04:55:15;;;;;;;16.13;14.43;;;15.80;99.90;;;;;;6226728;22;20008;-95
2023/09/08 04:57:40;;;;;;;15.43;13.82;;;15.80;99.90;;;;;;6243585;22;20011;-94
2023/09/08 05:00:07;;;;;;;15.27;13.82;;;15.80;99.90;;;;;;6240623;22;20011;-95
2023/09/08 05:02:32;;;;;;;16.00;14.50;;;15.80;99.90;;;;;;6274661;22;20003;-95
2023/09/08 05:04:59;;;;;;;15.98;14.48;;;15.80;99.90;;;;;;6266026;22;20072;-93
2023/09/08 05:07:25;;;;;;;15.70;14.10;;;15.80;99.90;;;;;;6226039;22;20054;-94
2023/09/08 05:09:51;;;;;;;16.13;14.57;;;15.80;99.90;;;;;;6220222;23;20569;-95
2023/09/08 05:12:17;;;;;;;15.70;14.20;;;15.90;99.90;;;;;;6246321;23;20040;-94
2023/09/08 05:14:43;;;;;;;15.00;13.60;;;15.90;99.90;;;;;;6246948;23;20023;-96
2023/09/08 05:17:08;;;;;;;14.98;13.48;;;15.90;99.90;;;;;;6221143;23;20078;-95
2023/09/08 05:19:34;;;;;;;16.58;14.35;;;15.90;99.90;;;;;;6255617;23;20030;-94
2023/09/08 05:22:00;;;;;;;15.13;13.55;;;16.00;99.90;;;;;;6242590;23;20012;-95
2023/09/08 05:24:26;;;;;;;15.35;13.77;;;16.00;99.90;;;;;;6261563;22;20016;-95
2023/09/08 05:26:52;;;;;;;15.23;13.73;;;16.00;99.90;;;;;;6221639;23;20019;-95
2023/09/08 05:29:18;;;;;;;15.00;13.57;;;16.10;99.90;;;;;;6221012;23;20016;-95
2023/09/08 05:31:44;;;;;;;15.57;14.02;;;16.10;99.90;;;;;;6246037;23;20023;-96
2023/09/08 05:34:12;;;;;;;14.52;13.13;;;16.10;99.90;;;;;;6221064;23;20048;-96
2023/09/08 05:36:39;;;;;;;14.43;13.02;;;16.10;99.90;;;;;;6252516;23;20012;-96
2023/09/08 05:39:05;;;;;;;14.40;13.02;;;16.20;99.90;;;;;;6232631;23;20039;-95
2023/09/08 05:41:32;;;;;;;14.32;12.93;;;16.20;99.90;;;;;;6254673;23;20027;-95
2023/09/08 05:43:58;;;;;;;14.20;12.95;;;16.30;99.90;;;;;;6251252;23;20023;-94
2023/09/08 05:46:24;;;;;;;14.90;13.55;;;16.30;99.90;;;;;;6249280;23;20495;-95
2023/09/08 05:48:50;;;;;;;14.30;13.00;;;16.40;99.90;;;;;;6223112;23;20020;-95
2023/09/08 05:51:15;;;;;;;13.93;12.52;;;16.50;99.90;;;;;;6243718;23;20043;-96
2023/09/08 05:53:41;;;;;;;13.93;12.57;;;16.70;99.90;;;;;;6244646;23;20107;-95
2023/09/08 05:56:07;;;;;;;14.18;12.73;;;16.80;99.90;;;;;;6264758;22;20016;-96
2023/09/08 05:58:34;;;;;;;14.35;13.13;;;;;;;;;;6229293;23;20008;-96
2023/09/08 06:01:03;;;;;;;14.73;13.23;;;17.00;99.90;;;;;;6252830;22;20016;-95
2023/09/08 06:03:47;;;;;;;14.25;12.80;;;18.90;99.90;;;;;;6236498;23;20016;-96
2023/09/08 06:06:13;;;;;;;12.90;11.60;;;19.80;99.90;;;;;;6249158;23;20028;-96
2023/09/08 06:08:39;;;;;;;12.35;11.18;;;21.00;99.90;;;;;;6248262;23;20008;-95
2023/09/08 06:11:04;;;;;;;12.02;11.02;;;21.80;99.90;;;;;;6247230;23;20028;-95
2023/09/08 06:13:30;;;;;;;11.98;10.98;;;22.80;99.90;;;;;;6247971;23;20047;-96
2023/09/08 06:16:01;;;;;;;14.80;11.63;;;23.40;99.90;;;;;;6247632;23;20043;-95
2023/09/08 06:18:30;;;;;;;11.88;9.73;;;23.40;99.90;;;;;;6223028;23;20019;-96
2023/09/08 06:20:59;;;;;;;11.18;9.93;;;24.00;99.90;;;;;;6223489;23;20078;-96
2023/09/08 06:23:39;;;;;;;11.07;10.05;;;24.60;99.90;;;;;;6197551;23;20020;-96
2023/09/08 06:26:05;;;;;;;10.35;9.35;;;24.70;99.90;;;;;;6252704;23;20018;-96
2023/09/08 06:28:31;;;;;;;10.63;9.63;;;24.60;99.90;;;;;;6222848;23;20035;-96
2023/09/08 06:30:57;;;;;;;10.40;9.35;;;25.10;99.90;;;;;;6248308;23;20020;-96
2023/09/08 06:33:23;;;;;;;10.23;9.32;;;25.90;99.90;;;;;;6223047;23;20012;-96
2023/09/08 06:35:49;;;;;;;10.65;9.55;;;26.20;99.90;;;;;;6222367;23;20016;-96
2023/09/08 06:38:14;;;;;;;9.27;8.48;;;25.90;99.90;;;;;;6222532;23;20043;-96
2023/09/08 06:40:40;;;;;;;10.43;9.52;;;26.60;99.90;;;;;;6248223;23;20099;-96
2023/09/08 06:43:06;;;;;;;10.88;9.15;;;;;;;;;;6247895;23;20027;-96
2023/09/08 06:45:32;;;;;;;10.07;9.00;;;26.90;99.90;;;;;;6235566;23;20007;-96
2023/09/08 06:47:59;;;;;;;9.55;8.35;;;27.30;99.90;;;;;;6251387;23;20028;-96
2023/09/08 06:50:26;;;;;;;;;;;27.30;99.90;;;;;;6229856;23;20016;-96
2023/09/08 06:52:52;;;;;;;8.82;7.95;;;27.30;99.90;;;;;;6222439;23;19911;-96
2023/09/08 06:55:19;;;;;;;10.35;8.52;;;27.40;99.90;;;;;;6224615;23;20019;-96
2023/09/08 06:57:46;;;;;;;9.45;8.05;;;27.30;99.90;;;;;;6225405;23;20016;-96
2023/09/08 07:00:13;;;;;;;9.50;8.50;;;27.50;99.90;;;;;;6232483;23;20008;-96
2023/09/08 07:02:39;;;;;;;10.05;8.98;;;28.00;99.90;;;;;;6225748;23;20020;-96
2023/09/08 07:05:07;;;;;;;9.40;8.38;;;28.10;99.90;;;;;;6228807;23;20022;-96
2023/09/08 07:07:34;;;;;;;8.18;7.50;;;28.40;99.90;;;;;;6247315;23;20035;-95
2023/09/08 07:10:01;;;;;;;9.73;8.43;;;28.40;99.90;;;;;;6221124;23;20094;-95
2023/09/08 07:12:26;;;;;;;9.47;8.47;;;28.00;99.90;;;;;;6246323;23;20008;-96
2023/09/08 07:14:52;;;;;;;8.90;7.82;;;27.50;99.90;;;;;;6221281;23;20715;-96
2023/09/08 07:17:18;;;;;;;9.30;8.40;;;26.50;99.90;;;;;;6220793;23;20020;-96
2023/09/08 07:19:44;;;;;;;9.40;8.40;;;25.90;99.90;;;;;;6195604;23;20099;-95
2023/09/08 07:22:09;;;;;;;10.25;8.50;;;25.30;99.90;;;;;;6220539;23;20082;-96
2023/09/08 07:24:35;;;;;;;8.63;7.93;;;24.70;99.90;;;;;;6220385;23;20091;-96
2023/09/08 07:27:02;;;;;;;10.60;7.80;;;24.40;99.90;;;;;;6219730;23;20008;-96
2023/09/08 07:29:28;;;;;;;11.55;7.75;;;24.00;99.90;;;;;;6220144;23;20027;-96
2023/09/08 07:31:53;;;;;;;8.57;7.78;;;23.80;99.90;;;;;;6220998;23;20016;-95
2023/09/08 07:34:19;;;;;;;8.23;7.63;;;23.50;99.90;;;;;;6221544;23;20012;-95
2023/09/08 07:36:45;;;;;;;8.52;7.32;;;23.60;99.90;;;;;;6250713;23;20020;-95
2023/09/08 07:39:10;;;;;;;8.98;8.13;;;23.60;99.90;;;;;;6205398;23;20027;-95
2023/09/08 07:41:39;;;;;;;8.18;7.40;;;23.50;99.90;;;;;;6230374;23;20051;-95
2023/09/08 07:44:05;;;;;;;8.63;7.85;;;23.50;99.90;;;;;;6260835;22;20079;-96
2023/09/08 07:46:31;;;;;;;8.50;7.70;;;23.40;99.90;;;;;;6228413;23;20016;-95
2023/09/08 07:48:58;;;;;;;10.40;7.72;;;23.40;99.90;;;;;;6225734;23;20350;-96
2023/09/08 07:51:25;;;;;;;11.05;7.75;;;23.40;99.90;;;;;;6247859;23;20009;-95
2023/09/08 07:53:51;;;;;;;9.13;7.80;;;23.50;99.90;;;;;;6248791;23;20044;-95
2023/09/08 07:56:16;;;;;;;8.90;8.05;;;23.70;99.90;;;;;;6221631;23;20072;-95
2023/09/08 07:58:42;;;;;;;8.98;7.25;;;23.70;99.90;;;;;;6247003;23;20019;-95
2023/09/08 08:01:08;;;;;;;8.77;7.65;;;23.90;99.90;;;;;;6220879;23;20242;-95
2023/09/08 08:03:37;;;;;;;8.48;7.22;;;23.80;99.90;;;;;;6220341;23;20100;-96
2023/09/08 08:06:03;;;;;;;7.95;7.30;;;24.00;99.90;;;;;;6220033;23;20017;-95
2023/09/08 08:08:30;;;;;;;7.75;7.00;;;24.10;99.90;;;;;;6247768;23;20020;-95
2023/09/08 08:10:56;;;;;;;11.23;7.73;;;24.20;99.90;;;;;;6224765;23;20042;-95
2023/09/08 08:13:21;;;;;;;7.50;6.80;;;24.20;99.90;;;;;;6248100;23;20058;-94
2023/09/08 08:15:47;;;;;;;8.05;7.30;;;24.30;99.90;;;;;;6246635;23;20083;-96
2023/09/08 08:18:13;;;;;;;9.73;6.88;;;24.30;99.90;;;;;;6219030;23;20011;-95
2023/09/08 08:20:39;;;;;;;11.05;7.13;;;24.60;99.90;;;;;;6219616;23;20055;-95
2023/09/08 08:23:06;;;;;;;8.85;7.00;;;24.60;99.90;;;;;;6244679;23;20027;-95
2023/09/08 08:25:33;;;;;;;7.15;6.30;;;24.60;99.90;;;;;;6219638;23;20099;-94
2023/09/08 08:28:00;;;;;;;7.50;6.80;;;24.70;99.90;;;;;;6220158;23;20026;-96
2023/09/08 08:30:27;;;;;;;7.50;6.10;;;24.70;99.90;;;;;;6220207;23;20008;-96
2023/09/08 08:32:53;;;;;;;6.03;5.43;;;24.90;99.90;;;;;;6197214;23;20062;-95
2023/09/08 08:35:20;;;;;;;6.90;6.15;;;25.00;99.90;;;;;;6233398;23;20475;-95
2023/09/08 08:37:45;;;;;;;7.00;6.38;;;25.20;99.90;;;;;;6228530;23;20000;-95
2023/09/08 08:40:14;;;;;;;7.05;6.00;;;25.30;99.90;;;;;;6253720;23;20016;-95
2023/09/08 08:42:42;;;;;;;7.25;5.88;;;25.30;99.90;;;;;;6246096;23;20012;-95
2023/09/08 08:45:08;;;;;;;6.88;5.45;;;25.50;99.90;;;;;;6221696;23;20469;-94
2023/09/08 08:47:33;;;;;;;8.65;6.00;;;25.70;99.90;;;;;;6220242;23;20012;-95
2023/09/08 08:50:00;;;;;;;7.10;6.00;;;25.60;99.90;;;;;;6220015;23;20019;-95
2023/09/08 08:52:27;;;;;;;5.80;5.20;;;25.70;99.90;;;;;;6219681;23;20008;-95
2023/09/08 08:54:54;;;;;;;8.35;5.60;;;25.70;99.90;;;;;;6219662;23;20239;-94
2023/09/08 08:57:21;;;;;;;5.45;4.82;;;25.90;99.90;;;;;;6219622;23;20016;-95
2023/09/08 08:59:48;;;;;;;6.95;4.80;;;26.00;99.90;;;;;;6245726;23;20047;-94
2023/09/08 09:02:14;;;;;;;5.63;5.03;;;26.00;99.90;;;;;;6219576;23;20012;-95
2023/09/08 09:04:41;;;;;;;9.50;5.37;;;26.20;99.90;;;;;;6219237;23;20077;-95
2023/09/08 09:07:07;;;;;;;7.80;5.25;;;26.40;99.90;;;;;;6220154;23;20008;-95
2023/09/08 09:09:33;;;;;;;5.22;4.72;;;26.40;99.90;;;;;;6204203;22;20023;-94
2023/09/08 09:11:59;;;;;;;6.90;5.05;;;26.40;99.90;;;;;;6246297;22;20050;-95
2023/09/08 09:14:25;;;;;;;4.90;4.40;;;26.60;99.90;;;;;;6238387;22;20019;-96
2023/09/08 09:16:51;;;;;;;4.68;4.28;;;26.60;99.90;;;;;;6225141;22;20388;-94
2023/09/08 09:19:27;;;;;;;6.05;4.65;;;26.70;99.90;;;;;;6250917;22;20007;-95
2023/09/08 09:21:54;;;;;;;5.10;4.60;;;26.70;99.90;;;;;;6224126;22;20054;-94
2023/09/08 09:24:33;;;;;;;;;;;26.90;99.90;;;;;;6224489;22;20011;-95
2023/09/08 09:27:04;;;;;;;6.70;4.45;;;27.00;99.90;;;;;;6225801;22;19989;-94
2023/09/08 09:29:33;;;;;;;5.65;4.40;;;27.10;99.90;;;;;;6264288;22;20016;-95
2023/09/08 09:32:09;;;;;;;4.18;3.78;;;27.30;99.90;;;;;;6256651;22;20020;-95
2023/09/08 09:34:35;;;;;;;4.32;3.58;;;27.30;99.90;;;;;;6232981;22;20015;-95
2023/09/08 09:37:01;;;;;;;4.63;3.60;;;27.30;99.90;;;;;;6250753;22;20506;-94
2023/09/08 09:39:27;;;;;;;6.43;4.00;;;27.40;99.90;;;;;;6226400;22;20016;-94
2023/09/08 09:41:57;;;;;;;4.70;3.90;;;27.50;99.90;;;;;;6232670;22;20122;-95
2023/09/08 09:44:23;;;;;;;4.30;3.90;;;27.60;99.90;;;;;;6245805;22;20012;-95
2023/09/08 09:46:52;;;;;;;5.68;4.15;;;;;;;;;;6237131;22;20015;-94
2023/09/08 09:49:18;;;;;;;6.10;4.03;;;27.70;99.90;;;;;;6272546;22;19999;-94
2023/09/08 09:51:47;;;;;;;4.60;4.20;;;27.80;99.90;;;;;;6245267;22;20047;-94
2023/09/08 09:54:14;;;;;;;5.60;4.00;;;27.70;99.90;;;;;;6245708;22;20019;-93
2023/09/08 09:56:40;;;;;;;;;;;28.00;99.90;;;;;;6226223;22;20015;-94
2023/09/08 09:59:11;;;;;;;4.80;3.93;;;27.90;99.90;;;;;;6249091;22;19911;-95
2023/09/08 10:01:37;;;;;;;4.60;3.92;;;27.90;99.90;;;;;;6249360;22;20806;-94
2023/09/08 10:04:04;;;;;;;7.37;4.30;;;28.00;99.90;;;;;;6250503;22;20018;-94
2023/09/08 10:06:34;;;;;;;;;;;28.10;99.90;;;;;;6241115;22;20008;-94
2023/09/08 10:09:02;;;;;;;4.88;4.35;;;28.30;99.90;;;;;;6268863;22;19896;-94
2023/09/08 10:11:30;;;;;;;4.45;4.00;;;28.30;99.90;;;;;;6244524;23;20000;-94
2023/09/08 10:14:00;;;;;;;5.47;4.30;;;28.40;99.90;;;;;;6230378;23;20031;-94
2023/09/08 10:16:30;;;;;;;4.40;3.70;;;28.50;99.90;;;;;;6245079;23;20022;-94
2023/09/08 10:18:59;;;;;;;4.60;3.90;;;28.60;99.90;;;;;;6218707;23;20095;-96
2023/09/08 10:21:29;;;;;;;6.55;4.32;;;28.70;99.90;;;;;;6245164;23;20450;-95
2023/09/08 10:24:01;;;;;;;4.55;4.15;;;28.70;99.90;;;;;;6233492;23;20016;-95
2023/09/08 10:26:30;;;;;;;6.43;4.10;;;28.60;99.90;;;;;;6221634;23;20016;-96
2023/09/08 10:28:56;;;;;;;4.60;3.97;;;28.70;99.90;;;;;;6251007;23;20015;-95
2023/09/08 10:31:28;;;;;;;4.63;3.90;;;28.80;99.90;;;;;;6244774;23;20008;-95
2023/09/08 10:33:57;;;;;;;4.95;4.43;;;28.80;99.90;;;;;;6245273;23;20011;-95
2023/09/08 10:36:24;;;;;;;4.47;4.10;;;28.90;99.90;;;;;;6244672;23;20449;-95
2023/09/08 10:38:51;;;;;;;4.47;4.07;;;29.00;99.90;;;;;;6194136;23;20042;-95
2023/09/08 10:41:17;;;;;;;;;;;29.10;99.90;;;;;;6219805;23;20047;-95
2023/09/08 10:43:44;;;;;;;4.40;4.00;;;29.10;99.90;;;;;;6217954;23;19919;-95
2023/09/08 10:46:11;;;;;;;4.53;4.07;;;29.00;99.90;;;;;;6244506;23;20012;-95
2023/09/08 10:48:46;;;;;;;4.63;4.22;;;28.90;99.90;;;;;;6246540;23;20012;-95
2023/09/08 10:51:16;;;;;;;5.90;4.40;;;29.00;99.90;;;;;;6246437;23;20008;-94
2023/09/08 10:53:42;;;;;;;5.20;3.92;;;29.10;99.90;;;;;;6221704;23;20043;-95
2023/09/08 10:56:08;;;;;;;5.43;4.15;;;29.20;99.90;;;;;;6221702;23;20083;-94
2023/09/08 10:58:38;;;;;;;9.73;4.40;;;29.20;99.90;;;;;;6248082;23;20036;-95
2023/09/08 11:01:05;;;;;;;6.63;4.13;;;29.00;99.90;;;;;;6222224;23;20012;-94
2023/09/08 11:03:37;;;;;;;4.75;4.35;;;29.20;99.90;;;;;;6221744;23;20063;-94
2023/09/08 11:06:04;;;;;;;8.65;4.20;;;29.10;99.90;;;;;;6220625;23;20333;-94
2023/09/08 11:08:30;;;;;;;4.63;4.20;;;29.30;99.90;;;;;;6221426;23;20020;-95
2023/09/08 11:10:56;;;;;;;4.93;4.30;;;29.30;99.90;;;;;;6246728;23;20035;-95
2023/09/08 11:13:22;;;;;;;4.50;4.10;;;29.20;99.90;;;;;;6223349;23;20437;-94
2023/09/08 11:15:50;;;;;;;5.10;4.45;;;29.40;99.90;;;;;;6224969;23;20022;-96
2023/09/08 11:18:16;;;;;;;7.22;4.20;;;29.40;99.60;;;;;;6267026;22;20004;-95
2023/09/08 11:20:44;;;;;;;6.82;4.13;;;29.30;99.30;;;;;;6223218;23;20146;-95
2023/09/08 11:23:10;;;;;;;5.95;4.25;;;29.40;99.50;;;;;;6237182;23;20042;-95
2023/09/08 11:25:36;;;;;;;4.80;4.20;;;29.50;99.30;;;;;;6245722;23;20012;-94
2023/09/08 11:28:02;;;;;;;5.65;4.13;;;29.50;99.60;;;;;;6219535;23;20071;-94
2023/09/08 11:30:28;;;;;;;4.90;4.50;;;29.60;99.90;;;;;;6220271;23;20019;-95
2023/09/08 11:32:58;;;;;;;5.85;4.15;;;29.60;99.30;;;;;;6246580;23;20013;-94
2023/09/08 11:35:27;;;;;;;5.00;4.20;;;29.60;99.10;;;;;;6220729;23;20016;-96
2023/09/08 11:37:54;;;;;;;4.90;4.32;;;29.70;98.90;;;;;;6220940;23;20023;-94
2023/09/08 11:40:22;;;;;;;6.10;4.07;;;29.60;99.60;;;;;;6221524;23;20012;-95
2023/09/08 11:42:48;;;;;;;12.05;3.85;;;29.60;99.40;;;;;;6249778;23;20020;-94
2023/09/08 11:45:17;;;;;;;6.28;4.10;;;29.50;99.00;;;;;;6225474;23;20337;-95
2023/09/08 11:47:43;;;;;;;7.95;4.13;;;29.60;98.80;;;;;;6226648;23;20008;-95
2023/09/08 11:50:15;;;;;;;4.63;4.20;;;29.70;99.60;;;;;;6224114;23;20019;-95
2023/09/08 11:52:44;;;;;;;6.07;3.92;;;29.70;98.70;;;;;;6220201;23;20022;-94
2023/09/08 11:55:11;;;;;;;5.63;4.07;;;29.70;99.70;;;;;;6245308;23;20055;-95
2023/09/08 11:57:36;;;;;;;;;;;29.80;99.40;;;;;;6219038;23;20472;-96
2023/09/08 12:00:05;;;;;;;6.60;4.50;;;29.80;98.70;;;;;;6220597;23;19913;-96
2023/09/08 12:02:37;;;;;;;4.50;4.07;;;30.00;99.00;;;;;;6220988;23;20024;-95
2023/09/08 12:05:09;;;;;;;4.65;3.92;;;29.90;99.50;;;;;;6246559;23;20016;-96
2023/09/08 12:07:37;;;;;;;6.05;3.83;;;30.10;99.50;;;;;;6246065;23;20004;-96
2023/09/08 12:10:09;;;;;;;6.15;4.40;;;30.10;98.50;;;;;;6246051;23;20012;-94
2023/09/08 12:12:42;;;;;;;5.50;3.88;;;30.20;98.70;;;;;;6260499;22;20027;-93
2023/09/08 12:15:08;;;;;;;5.53;4.20;;;30.10;99.40;;;;;;6250895;23;20020;-94
2023/09/08 12:17:47;;;;;;;4.13;3.70;;;30.10;99.30;;;;;;6230842;23;20035;-95
2023/09/08 12:20:15;;;;;;;4.68;3.72;;;30.10;98.60;;;;;;6220654;23;20008;-95
2023/09/08 12:22:50;;;;;;;4.40;3.90;;;30.10;98.40;;;;;;6219980;23;20023;-95
2023/09/08 12:25:16;;;;;;;3.97;3.67;;;30.10;98.10;;;;;;6219958;23;20457;-95
2023/09/08 12:27:42;;;;;;;5.70;4.13;;;30.30;98.50;;;;;;6221948;23;20107;-95
2023/09/08 12:30:09;;;;;;;5.45;3.90;;;30.20;97.90;;;;;;6222399;23;20012;-95
2023/09/08 12:32:36;;;;;;;4.68;3.55;;;30.30;98.30;;;;;;6232624;23;20020;-94
2023/09/08 12:35:08;;;;;;;4.35;3.88;;;30.30;98.70;;;;;;6234130;23;20012;-93
2023/09/08 12:37:34;;;;;;;4.53;3.80;;;30.30;98.50;;;;;;6255890;23;20012;-93
2023/09/08 12:40:01;;;;;;;4.82;3.90;;;30.40;98.70;;;;;;6224668;23;20012;-95
2023/09/08 12:42:29;;;;;;;5.65;4.03;;;30.50;98.40;;;;;;6221379;23;20315;-93
2023/09/08 12:44:55;;;;;;;5.90;4.05;;;30.30;98.10;;;;;;6220519;23;20016;-95
2023/09/08 12:47:21;;;;;;;5.20;3.90;;;30.40;98.20;;;;;;6245468;23;20020;-95
2023/09/08 12:49:47;;;;;;;4.63;3.58;;;30.40;98.10;;;;;;6194600;23;20020;-95
2023/09/08 12:52:12;;;;;;;6.75;4.30;;;30.40;98.40;;;;;;6193953;23;20023;-94
2023/09/08 12:54:38;;;;;;;4.45;3.60;;;30.50;98.10;;;;;;6193942;23;20441;-94
2023/09/08 12:57:04;;;;;;;5.07;3.92;;;30.50;98.10;;;;;;6194469;23;20404;-95